sensor_id;sensor_type;location;lat;lon;timestamp;P1;durP1;ratioP1;P2;durP2;ratioP2
80725;SDS011;70113;59.928;10.878;2023-11-19T00:02:08;11.48;;;5.25;;
80725;SDS011;70113;59.928;10.878;2023-11-19T00:04:38;10.82;;;5.45;;
80725;SDS011;70113;59.928;10.878;2023-11-19T00:07:06;9.43;;;5.05;;
80725;SDS011;70113;59.928;10.878;2023-11-19T00:09:33;10.48;;;6.22;;
80725;SDS011;70113;59.928;10.878;2023-11-19T00:11:59;11.02;;;5.88;;
80725;SDS011;70113;59.928;10.878;2023-11-19T00:14:26;14.55;;;6.10;;
80725;SDS011;70113;59.928;10.878;2023-11-19T00:16:51;11.18;;;5.47;;
80725;SDS011;70113;59.928;10.878;2023-11-19T00:19:19;12.88;;;6.28;;
80725;SDS011;70113;59.928;10.878;2023-11-19T00:21:44;11.73;;;5.65;;
80725;SDS011;70113;59.928;10.878;2023-11-19T00:24:11;10.27;;;5.60;;
80725;SDS011;70113;59.928;10.878;2023-11-19T00:26:38;10.40;;;5.25;;
80725;SDS011;70113;59.928;10.878;2023-11-19T00:29:04;10.55;;;5.97;;
80725;SDS011;70113;59.928;10.878;2023-11-19T00:31:31;9.75;;;5.15;;
80725;SDS011;70113;59.928;10.878;2023-11-19T00:33:57;11.98;;;6.55;;
80725;SDS011;70113;59.928;10.878;2023-11-19T00:36:23;14.02;;;5.65;;
80725;SDS011;70113;59.928;10.878;2023-11-19T00:38:49;12.45;;;6.55;;
80725;SDS011;70113;59.928;10.878;2023-11-19T00:41:15;12.45;;;5.50;;
80725;SDS011;70113;59.928;10.878;2023-11-19T00:43:44;10.55;;;6.00;;
80725;SDS011;70113;59.928;10.878;2023-11-19T00:46:09;11.55;;;6.13;;
80725;SDS011;70113;59.928;10.878;2023-11-19T00:48:36;11.43;;;5.55;;
80725;SDS011;70113;59.928;10.878;2023-11-19T00:51:02;10.60;;;5.60;;
80725;SDS011;70113;59.928;10.878;2023-11-19T00:53:29;11.73;;;6.30;;
80725;SDS011;70113;59.928;10.878;2023-11-19T00:55:55;10.93;;;5.38;;
80725;SDS011;70113;59.928;10.878;2023-11-19T00:58:21;11.43;;;6.32;;
80725;SDS011;70113;59.928;10.878;2023-11-19T01:00:47;12.32;;;6.32;;
80725;SDS011;70113;59.928;10.878;2023-11-19T01:03:13;11.88;;;5.18;;
80725;SDS011;70113;59.928;10.878;2023-11-19T01:05:40;11.07;;;5.85;;
80725;SDS011;70113;59.928;10.878;2023-11-19T01:08:06;12.23;;;5.80;;
80725;SDS011;70113;59.928;10.878;2023-11-19T01:10:33;12.40;;;6.53;;
80725;SDS011;70113;59.928;10.878;2023-11-19T01:12:59;11.73;;;5.90;;
80725;SDS011;70113;59.928;10.878;2023-11-19T01:15:25;10.68;;;5.78;;
80725;SDS011;70113;59.928;10.878;2023-11-19T01:17:51;11.55;;;5.63;;
80725;SDS011;70113;59.928;10.878;2023-11-19T01:20:17;10.60;;;5.80;;
80725;SDS011;70113;59.928;10.878;2023-11-19T01:22:43;11.30;;;5.43;;
80725;SDS011;70113;59.928;10.878;2023-11-19T01:25:10;11.43;;;6.78;;
80725;SDS011;70113;59.928;10.878;2023-11-19T01:27:35;11.32;;;5.78;;
80725;SDS011;70113;59.928;10.878;2023-11-19T01:30:02;11.65;;;5.22;;
80725;SDS011;70113;59.928;10.878;2023-11-19T01:32:31;11.98;;;5.85;;
80725;SDS011;70113;59.928;10.878;2023-11-19T01:34:57;11.38;;;5.43;;
80725;SDS011;70113;59.928;10.878;2023-11-19T01:37:23;9.52;;;4.80;;
80725;SDS011;70113;59.928;10.878;2023-11-19T01:39:49;10.00;;;5.47;;
80725;SDS011;70113;59.928;10.878;2023-11-19T01:42:14;9.52;;;5.25;;
80725;SDS011;70113;59.928;10.878;2023-11-19T01:44:41;12.98;;;5.85;;
80725;SDS011;70113;59.928;10.878;2023-11-19T01:47:06;10.15;;;5.75;;
80725;SDS011;70113;59.928;10.878;2023-11-19T01:49:33;8.98;;;4.72;;
80725;SDS011;70113;59.928;10.878;2023-11-19T01:51:59;10.27;;;5.50;;
80725;SDS011;70113;59.928;10.878;2023-11-19T01:54:25;9.18;;;5.13;;
80725;SDS011;70113;59.928;10.878;2023-11-19T01:56:53;10.60;;;5.20;;
80725;SDS011;70113;59.928;10.878;2023-11-19T01:59:23;9.82;;;5.00;;
80725;SDS011;70113;59.928;10.878;2023-11-19T02:01:52;11.05;;;5.85;;
80725;SDS011;70113;59.928;10.878;2023-11-19T02:04:20;10.88;;;5.78;;
80725;SDS011;70113;59.928;10.878;2023-11-19T02:06:46;11.50;;;5.70;;
80725;SDS011;70113;59.928;10.878;2023-11-19T02:09:18;10.93;;;5.75;;
80725;SDS011;70113;59.928;10.878;2023-11-19T02:11:45;11.38;;;6.03;;
80725;SDS011;70113;59.928;10.878;2023-11-19T02:14:15;13.43;;;5.45;;
80725;SDS011;70113;59.928;10.878;2023-11-19T02:16:41;10.02;;;5.30;;
80725;SDS011;70113;59.928;10.878;2023-11-19T02:19:07;10.45;;;5.35;;
80725;SDS011;70113;59.928;10.878;2023-11-19T02:21:34;8.00;;;5.03;;
80725;SDS011;70113;59.928;10.878;2023-11-19T02:24:00;9.00;;;4.85;;
80725;SDS011;70113;59.928;10.878;2023-11-19T02:29:09;9.10;;;4.05;;
80725;SDS011;70113;59.928;10.878;2023-11-19T02:31:36;9.38;;;4.40;;
80725;SDS011;70113;59.928;10.878;2023-11-19T02:34:02;8.15;;;4.30;;
80725;SDS011;70113;59.928;10.878;2023-11-19T02:36:27;9.30;;;5.32;;
80725;SDS011;70113;59.928;10.878;2023-11-19T02:38:53;9.57;;;4.75;;
80725;SDS011;70113;59.928;10.878;2023-11-19T02:41:19;9.82;;;5.00;;
80725;SDS011;70113;59.928;10.878;2023-11-19T02:43:45;10.02;;;4.90;;
80725;SDS011;70113;59.928;10.878;2023-11-19T02:46:13;7.18;;;3.88;;
80725;SDS011;70113;59.928;10.878;2023-11-19T02:48:39;9.95;;;4.90;;
80725;SDS011;70113;59.928;10.878;2023-11-19T02:51:05;7.63;;;4.45;;
80725;SDS011;70113;59.928;10.878;2023-11-19T02:53:35;9.43;;;4.68;;
80725;SDS011;70113;59.928;10.878;2023-11-19T02:56:00;8.07;;;4.13;;
80725;SDS011;70113;59.928;10.878;2023-11-19T02:58:31;9.18;;;4.45;;
80725;SDS011;70113;59.928;10.878;2023-11-19T03:00:57;7.85;;;4.25;;
80725;SDS011;70113;59.928;10.878;2023-11-19T03:03:24;8.00;;;4.25;;
80725;SDS011;70113;59.928;10.878;2023-11-19T03:05:56;8.05;;;4.93;;
80725;SDS011;70113;59.928;10.878;2023-11-19T03:08:22;8.68;;;4.53;;
80725;SDS011;70113;59.928;10.878;2023-11-19T03:10:48;6.43;;;3.55;;
80725;SDS011;70113;59.928;10.878;2023-11-19T03:13:14;10.63;;;5.22;;
80725;SDS011;70113;59.928;10.878;2023-11-19T03:15:41;8.20;;;4.22;;
80725;SDS011;70113;59.928;10.878;2023-11-19T03:18:07;7.70;;;4.35;;
80725;SDS011;70113;59.928;10.878;2023-11-19T03:20:33;9.10;;;4.45;;
80725;SDS011;70113;59.928;10.878;2023-11-19T03:22:58;8.70;;;4.18;;
80725;SDS011;70113;59.928;10.878;2023-11-19T03:25:25;8.50;;;4.72;;
80725;SDS011;70113;59.928;10.878;2023-11-19T03:28:02;7.32;;;4.10;;
80725;SDS011;70113;59.928;10.878;2023-11-19T03:30:29;7.75;;;4.07;;
80725;SDS011;70113;59.928;10.878;2023-11-19T03:32:56;8.35;;;4.38;;
80725;SDS011;70113;59.928;10.878;2023-11-19T03:35:23;8.70;;;4.40;;
80725;SDS011;70113;59.928;10.878;2023-11-19T03:37:49;9.40;;;4.15;;
80725;SDS011;70113;59.928;10.878;2023-11-19T03:40:16;9.32;;;4.15;;
80725;SDS011;70113;59.928;10.878;2023-11-19T03:42:44;8.10;;;4.25;;
80725;SDS011;70113;59.928;10.878;2023-11-19T03:45:10;8.90;;;4.65;;
80725;SDS011;70113;59.928;10.878;2023-11-19T03:47:36;6.93;;;4.00;;
80725;SDS011;70113;59.928;10.878;2023-11-19T03:50:02;6.70;;;3.45;;
80725;SDS011;70113;59.928;10.878;2023-11-19T03:52:28;7.43;;;3.80;;
80725;SDS011;70113;59.928;10.878;2023-11-19T03:54:55;7.05;;;3.47;;
80725;SDS011;70113;59.928;10.878;2023-11-19T03:57:21;7.32;;;3.60;;
80725;SDS011;70113;59.928;10.878;2023-11-19T03:59:47;9.82;;;3.55;;
80725;SDS011;70113;59.928;10.878;2023-11-19T04:02:13;6.38;;;3.28;;
80725;SDS011;70113;59.928;10.878;2023-11-19T04:04:39;6.63;;;3.30;;
80725;SDS011;70113;59.928;10.878;2023-11-19T04:07:05;6.68;;;3.83;;
80725;SDS011;70113;59.928;10.878;2023-11-19T04:09:31;5.13;;;2.67;;
80725;SDS011;70113;59.928;10.878;2023-11-19T04:12:00;6.68;;;3.20;;
80725;SDS011;70113;59.928;10.878;2023-11-19T04:14:26;6.60;;;3.08;;
80725;SDS011;70113;59.928;10.878;2023-11-19T04:16:52;7.38;;;3.15;;
80725;SDS011;70113;59.928;10.878;2023-11-19T04:19:19;8.15;;;3.58;;
80725;SDS011;70113;59.928;10.878;2023-11-19T04:21:45;7.57;;;3.70;;
80725;SDS011;70113;59.928;10.878;2023-11-19T04:24:11;6.97;;;3.20;;
80725;SDS011;70113;59.928;10.878;2023-11-19T04:26:42;7.40;;;3.30;;
80725;SDS011;70113;59.928;10.878;2023-11-19T04:29:14;8.23;;;3.92;;
80725;SDS011;70113;59.928;10.878;2023-11-19T04:31:40;5.78;;;2.97;;
80725;SDS011;70113;59.928;10.878;2023-11-19T04:34:06;7.50;;;3.60;;
80725;SDS011;70113;59.928;10.878;2023-11-19T04:36:32;6.88;;;2.97;;
80725;SDS011;70113;59.928;10.878;2023-11-19T04:39:02;7.38;;;2.92;;
80725;SDS011;70113;59.928;10.878;2023-11-19T04:41:27;6.45;;;3.20;;
80725;SDS011;70113;59.928;10.878;2023-11-19T04:43:54;5.97;;;3.10;;
80725;SDS011;70113;59.928;10.878;2023-11-19T04:46:19;7.40;;;3.42;;
80725;SDS011;70113;59.928;10.878;2023-11-19T04:48:46;6.32;;;3.15;;
80725;SDS011;70113;59.928;10.878;2023-11-19T04:51:11;7.05;;;3.17;;
80725;SDS011;70113;59.928;10.878;2023-11-19T04:53:37;6.63;;;3.28;;
80725;SDS011;70113;59.928;10.878;2023-11-19T04:56:09;7.43;;;2.90;;
80725;SDS011;70113;59.928;10.878;2023-11-19T04:58:36;6.65;;;3.05;;
80725;SDS011;70113;59.928;10.878;2023-11-19T05:01:03;8.40;;;3.17;;
80725;SDS011;70113;59.928;10.878;2023-11-19T05:03:30;9.15;;;3.30;;
80725;SDS011;70113;59.928;10.878;2023-11-19T05:05:57;5.97;;;2.95;;
80725;SDS011;70113;59.928;10.878;2023-11-19T05:08:23;7.63;;;3.30;;
80725;SDS011;70113;59.928;10.878;2023-11-19T05:10:49;7.45;;;3.30;;
80725;SDS011;70113;59.928;10.878;2023-11-19T05:13:15;6.95;;;3.60;;
80725;SDS011;70113;59.928;10.878;2023-11-19T05:15:40;5.85;;;2.80;;
80725;SDS011;70113;59.928;10.878;2023-11-19T05:18:06;7.50;;;3.08;;
80725;SDS011;70113;59.928;10.878;2023-11-19T05:20:32;7.45;;;4.05;;
80725;SDS011;70113;59.928;10.878;2023-11-19T05:22:58;7.38;;;2.90;;
80725;SDS011;70113;59.928;10.878;2023-11-19T05:25:25;7.07;;;2.90;;
80725;SDS011;70113;59.928;10.878;2023-11-19T05:27:52;6.90;;;3.20;;
80725;SDS011;70113;59.928;10.878;2023-11-19T05:30:18;7.25;;;3.15;;
80725;SDS011;70113;59.928;10.878;2023-11-19T05:32:44;6.65;;;3.17;;
80725;SDS011;70113;59.928;10.878;2023-11-19T05:35:10;7.00;;;3.40;;
80725;SDS011;70113;59.928;10.878;2023-11-19T05:37:36;7.55;;;3.55;;
80725;SDS011;70113;59.928;10.878;2023-11-19T05:40:02;7.82;;;3.72;;
80725;SDS011;70113;59.928;10.878;2023-11-19T05:42:32;8.13;;;3.83;;
80725;SDS011;70113;59.928;10.878;2023-11-19T05:44:57;16.83;;;4.47;;
80725;SDS011;70113;59.928;10.878;2023-11-19T05:47:23;7.60;;;3.63;;
80725;SDS011;70113;59.928;10.878;2023-11-19T05:49:49;9.93;;;4.32;;
80725;SDS011;70113;59.928;10.878;2023-11-19T05:52:15;8.07;;;3.47;;
80725;SDS011;70113;59.928;10.878;2023-11-19T05:54:40;9.48;;;4.30;;
80725;SDS011;70113;59.928;10.878;2023-11-19T05:57:07;7.68;;;3.42;;
80725;SDS011;70113;59.928;10.878;2023-11-19T05:59:35;10.23;;;3.30;;
80725;SDS011;70113;59.928;10.878;2023-11-19T06:02:02;9.48;;;4.45;;
80725;SDS011;70113;59.928;10.878;2023-11-19T06:04:28;8.02;;;3.88;;
80725;SDS011;70113;59.928;10.878;2023-11-19T06:06:54;7.10;;;3.33;;
80725;SDS011;70113;59.928;10.878;2023-11-19T06:09:20;8.18;;;4.45;;
80725;SDS011;70113;59.928;10.878;2023-11-19T06:11:49;8.02;;;3.70;;
80725;SDS011;70113;59.928;10.878;2023-11-19T06:14:16;8.65;;;3.53;;
80725;SDS011;70113;59.928;10.878;2023-11-19T06:16:42;10.30;;;3.80;;
80725;SDS011;70113;59.928;10.878;2023-11-19T06:19:08;8.27;;;3.40;;
80725;SDS011;70113;59.928;10.878;2023-11-19T06:21:34;6.72;;;3.38;;
80725;SDS011;70113;59.928;10.878;2023-11-19T06:24:01;7.25;;;3.28;;
80725;SDS011;70113;59.928;10.878;2023-11-19T06:26:26;6.28;;;2.85;;
80725;SDS011;70113;59.928;10.878;2023-11-19T06:28:52;5.97;;;2.67;;
80725;SDS011;70113;59.928;10.878;2023-11-19T06:31:18;6.63;;;2.78;;
80725;SDS011;70113;59.928;10.878;2023-11-19T06:33:44;6.97;;;3.20;;
80725;SDS011;70113;59.928;10.878;2023-11-19T06:36:10;6.05;;;3.10;;
80725;SDS011;70113;59.928;10.878;2023-11-19T06:38:35;7.90;;;3.58;;
80725;SDS011;70113;59.928;10.878;2023-11-19T06:41:01;7.97;;;3.85;;
80725;SDS011;70113;59.928;10.878;2023-11-19T06:43:27;8.48;;;4.10;;
80725;SDS011;70113;59.928;10.878;2023-11-19T06:45:53;9.63;;;4.28;;
80725;SDS011;70113;59.928;10.878;2023-11-19T06:48:19;8.10;;;4.13;;
80725;SDS011;70113;59.928;10.878;2023-11-19T06:50:45;9.20;;;3.83;;
80725;SDS011;70113;59.928;10.878;2023-11-19T06:53:11;9.80;;;4.05;;
80725;SDS011;70113;59.928;10.878;2023-11-19T06:55:37;8.10;;;3.78;;
80725;SDS011;70113;59.928;10.878;2023-11-19T06:58:02;8.90;;;4.30;;
80725;SDS011;70113;59.928;10.878;2023-11-19T07:00:29;8.82;;;4.35;;
80725;SDS011;70113;59.928;10.878;2023-11-19T07:02:55;9.75;;;3.88;;
80725;SDS011;70113;59.928;10.878;2023-11-19T07:05:21;8.15;;;3.80;;
80725;SDS011;70113;59.928;10.878;2023-11-19T07:07:46;8.57;;;3.58;;
80725;SDS011;70113;59.928;10.878;2023-11-19T07:10:12;8.82;;;3.88;;
80725;SDS011;70113;59.928;10.878;2023-11-19T07:12:38;8.88;;;4.07;;
80725;SDS011;70113;59.928;10.878;2023-11-19T07:15:04;8.75;;;3.80;;
80725;SDS011;70113;59.928;10.878;2023-11-19T07:17:30;9.45;;;4.45;;
80725;SDS011;70113;59.928;10.878;2023-11-19T07:19:56;8.85;;;4.78;;
80725;SDS011;70113;59.928;10.878;2023-11-19T07:22:25;8.75;;;4.85;;
80725;SDS011;70113;59.928;10.878;2023-11-19T07:24:51;10.40;;;4.45;;
80725;SDS011;70113;59.928;10.878;2023-11-19T07:27:18;8.15;;;4.03;;
80725;SDS011;70113;59.928;10.878;2023-11-19T07:29:44;8.82;;;4.03;;
80725;SDS011;70113;59.928;10.878;2023-11-19T07:32:10;10.23;;;4.50;;
80725;SDS011;70113;59.928;10.878;2023-11-19T07:34:37;8.25;;;4.18;;
80725;SDS011;70113;59.928;10.878;2023-11-19T07:37:02;7.13;;;3.97;;
80725;SDS011;70113;59.928;10.878;2023-11-19T07:39:28;9.43;;;4.20;;
80725;SDS011;70113;59.928;10.878;2023-11-19T07:41:55;8.52;;;4.28;;
80725;SDS011;70113;59.928;10.878;2023-11-19T07:44:21;11.13;;;4.35;;
80725;SDS011;70113;59.928;10.878;2023-11-19T07:46:47;8.30;;;4.50;;
80725;SDS011;70113;59.928;10.878;2023-11-19T07:49:13;10.70;;;5.38;;
80725;SDS011;70113;59.928;10.878;2023-11-19T07:51:39;11.13;;;5.13;;
80725;SDS011;70113;59.928;10.878;2023-11-19T07:54:05;11.88;;;5.25;;
80725;SDS011;70113;59.928;10.878;2023-11-19T07:56:32;9.45;;;4.40;;
80725;SDS011;70113;59.928;10.878;2023-11-19T07:58:59;10.82;;;5.40;;
80725;SDS011;70113;59.928;10.878;2023-11-19T08:01:25;10.43;;;5.03;;
80725;SDS011;70113;59.928;10.878;2023-11-19T08:03:51;10.40;;;4.65;;
80725;SDS011;70113;59.928;10.878;2023-11-19T08:06:17;11.93;;;6.18;;
80725;SDS011;70113;59.928;10.878;2023-11-19T08:08:42;10.10;;;4.85;;
80725;SDS011;70113;59.928;10.878;2023-11-19T08:11:08;9.20;;;5.13;;
80725;SDS011;70113;59.928;10.878;2023-11-19T08:13:34;10.70;;;4.70;;
80725;SDS011;70113;59.928;10.878;2023-11-19T08:16:00;11.25;;;5.53;;
80725;SDS011;70113;59.928;10.878;2023-11-19T08:18:25;11.00;;;4.72;;
80725;SDS011;70113;59.928;10.878;2023-11-19T08:20:51;12.25;;;5.20;;
80725;SDS011;70113;59.928;10.878;2023-11-19T08:23:21;10.13;;;4.82;;
80725;SDS011;70113;59.928;10.878;2023-11-19T08:25:49;11.20;;;5.43;;
80725;SDS011;70113;59.928;10.878;2023-11-19T08:28:14;11.93;;;5.43;;
80725;SDS011;70113;59.928;10.878;2023-11-19T08:30:40;11.75;;;5.82;;
80725;SDS011;70113;59.928;10.878;2023-11-19T08:33:06;10.35;;;5.65;;
80725;SDS011;70113;59.928;10.878;2023-11-19T08:35:32;9.70;;;4.95;;
80725;SDS011;70113;59.928;10.878;2023-11-19T08:37:58;9.48;;;4.35;;
80725;SDS011;70113;59.928;10.878;2023-11-19T08:40:24;10.00;;;4.97;;
80725;SDS011;70113;59.928;10.878;2023-11-19T08:42:51;11.90;;;5.60;;
80725;SDS011;70113;59.928;10.878;2023-11-19T08:45:17;9.73;;;4.68;;
80725;SDS011;70113;59.928;10.878;2023-11-19T08:47:43;10.55;;;5.10;;
80725;SDS011;70113;59.928;10.878;2023-11-19T08:50:11;11.63;;;5.90;;
80725;SDS011;70113;59.928;10.878;2023-11-19T08:52:37;11.93;;;5.47;;
80725;SDS011;70113;59.928;10.878;2023-11-19T08:55:03;14.73;;;6.10;;
80725;SDS011;70113;59.928;10.878;2023-11-19T08:57:31;13.98;;;6.82;;
80725;SDS011;70113;59.928;10.878;2023-11-19T08:59:58;13.68;;;6.95;;
80725;SDS011;70113;59.928;10.878;2023-11-19T09:02:24;11.55;;;5.50;;
80725;SDS011;70113;59.928;10.878;2023-11-19T09:04:50;12.18;;;5.40;;
80725;SDS011;70113;59.928;10.878;2023-11-19T09:07:16;12.18;;;5.50;;
80725;SDS011;70113;59.928;10.878;2023-11-19T09:09:42;11.73;;;5.50;;
80725;SDS011;70113;59.928;10.878;2023-11-19T09:12:08;11.55;;;5.63;;
80725;SDS011;70113;59.928;10.878;2023-11-19T09:14:34;10.68;;;6.00;;
80725;SDS011;70113;59.928;10.878;2023-11-19T09:16:59;11.43;;;5.22;;
80725;SDS011;70113;59.928;10.878;2023-11-19T09:19:25;11.27;;;5.82;;
80725;SDS011;70113;59.928;10.878;2023-11-19T09:21:54;12.80;;;5.90;;
80725;SDS011;70113;59.928;10.878;2023-11-19T09:24:20;11.90;;;5.53;;
80725;SDS011;70113;59.928;10.878;2023-11-19T09:26:45;12.32;;;6.88;;
80725;SDS011;70113;59.928;10.878;2023-11-19T09:29:11;10.23;;;5.00;;
80725;SDS011;70113;59.928;10.878;2023-11-19T09:31:39;14.20;;;5.90;;
80725;SDS011;70113;59.928;10.878;2023-11-19T09:34:05;10.88;;;5.45;;
80725;SDS011;70113;59.928;10.878;2023-11-19T09:36:31;11.18;;;5.55;;
80725;SDS011;70113;59.928;10.878;2023-11-19T09:38:57;11.60;;;5.78;;
80725;SDS011;70113;59.928;10.878;2023-11-19T09:41:27;11.15;;;5.57;;
80725;SDS011;70113;59.928;10.878;2023-11-19T09:43:53;12.02;;;6.15;;
80725;SDS011;70113;59.928;10.878;2023-11-19T09:46:19;9.65;;;5.00;;
80725;SDS011;70113;59.928;10.878;2023-11-19T09:48:45;10.40;;;5.90;;
80725;SDS011;70113;59.928;10.878;2023-11-19T09:51:11;11.77;;;6.28;;
80725;SDS011;70113;59.928;10.878;2023-11-19T09:53:37;10.63;;;6.38;;
80725;SDS011;70113;59.928;10.878;2023-11-19T09:56:06;12.27;;;6.07;;
80725;SDS011;70113;59.928;10.878;2023-11-19T09:58:35;12.40;;;6.50;;
80725;SDS011;70113;59.928;10.878;2023-11-19T10:01:01;13.70;;;6.53;;
80725;SDS011;70113;59.928;10.878;2023-11-19T10:03:32;11.32;;;6.43;;
80725;SDS011;70113;59.928;10.878;2023-11-19T10:06:09;10.43;;;6.20;;
80725;SDS011;70113;59.928;10.878;2023-11-19T10:08:37;11.85;;;5.40;;
80725;SDS011;70113;59.928;10.878;2023-11-19T10:11:04;11.95;;;5.75;;
80725;SDS011;70113;59.928;10.878;2023-11-19T10:13:31;12.05;;;6.15;;
80725;SDS011;70113;59.928;10.878;2023-11-19T10:15:58;10.90;;;5.43;;
80725;SDS011;70113;59.928;10.878;2023-11-19T10:18:27;11.82;;;6.05;;
80725;SDS011;70113;59.928;10.878;2023-11-19T10:20:53;11.10;;;5.57;;
80725;SDS011;70113;59.928;10.878;2023-11-19T10:23:20;12.48;;;5.75;;
80725;SDS011;70113;59.928;10.878;2023-11-19T10:25:46;11.55;;;5.07;;
80725;SDS011;70113;59.928;10.878;2023-11-19T10:28:14;9.27;;;4.80;;
80725;SDS011;70113;59.928;10.878;2023-11-19T10:30:41;9.18;;;4.47;;
80725;SDS011;70113;59.928;10.878;2023-11-19T10:33:13;11.18;;;4.75;;
80725;SDS011;70113;59.928;10.878;2023-11-19T10:35:56;8.43;;;4.82;;
80725;SDS011;70113;59.928;10.878;2023-11-19T10:38:23;9.95;;;4.90;;
80725;SDS011;70113;59.928;10.878;2023-11-19T10:40:51;8.98;;;4.32;;
80725;SDS011;70113;59.928;10.878;2023-11-19T10:43:18;9.43;;;4.90;;
80725;SDS011;70113;59.928;10.878;2023-11-19T10:45:44;11.20;;;5.38;;
80725;SDS011;70113;59.928;10.878;2023-11-19T10:48:10;9.63;;;4.45;;
80725;SDS011;70113;59.928;10.878;2023-11-19T11:29:37;11.48;;;5.95;;
80725;SDS011;70113;59.928;10.878;2023-11-19T11:32:22;10.88;;;5.90;;
80725;SDS011;70113;59.928;10.878;2023-11-19T11:40:20;10.18;;;5.85;;
80725;SDS011;70113;59.928;10.878;2023-11-19T11:42:45;10.35;;;5.55;;
80725;SDS011;70113;59.928;10.878;2023-11-19T11:45:12;12.65;;;5.72;;
80725;SDS011;70113;59.928;10.878;2023-11-19T11:55:27;11.63;;;5.18;;
80725;SDS011;70113;59.928;10.878;2023-11-19T11:57:53;10.45;;;5.32;;
80725;SDS011;70113;59.928;10.878;2023-11-19T12:00:27;11.82;;;5.68;;
80725;SDS011;70113;59.928;10.878;2023-11-19T12:02:57;14.50;;;5.50;;
80725;SDS011;70113;59.928;10.878;2023-11-19T12:05:25;10.00;;;4.80;;
80725;SDS011;70113;59.928;10.878;2023-11-19T12:08:01;10.95;;;5.32;;
80725;SDS011;70113;59.928;10.878;2023-11-19T12:10:30;10.00;;;5.30;;
80725;SDS011;70113;59.928;10.878;2023-11-19T12:13:17;9.35;;;5.07;;
80725;SDS011;70113;59.928;10.878;2023-11-19T12:16:26;10.57;;;4.85;;
80725;SDS011;70113;59.928;10.878;2023-11-19T12:18:33;10.63;;;5.15;;
80725;SDS011;70113;59.928;10.878;2023-11-19T12:20:59;10.80;;;5.28;;
80725;SDS011;70113;59.928;10.878;2023-11-19T12:23:26;9.55;;;5.30;;
80725;SDS011;70113;59.928;10.878;2023-11-19T12:25:54;9.93;;;5.90;;
80725;SDS011;70113;59.928;10.878;2023-11-19T12:28:20;8.95;;;4.60;;
80725;SDS011;70113;59.928;10.878;2023-11-19T12:30:46;9.98;;;5.13;;
80725;SDS011;70113;59.928;10.878;2023-11-19T12:33:13;12.95;;;5.40;;
80725;SDS011;70113;59.928;10.878;2023-11-19T12:35:40;12.23;;;5.82;;
80725;SDS011;70113;59.928;10.878;2023-11-19T12:38:06;10.32;;;5.18;;
80725;SDS011;70113;59.928;10.878;2023-11-19T12:40:32;11.20;;;5.32;;
80725;SDS011;70113;59.928;10.878;2023-11-19T12:42:58;9.15;;;4.63;;
80725;SDS011;70113;59.928;10.878;2023-11-19T12:45:34;8.73;;;4.53;;
80725;SDS011;70113;59.928;10.878;2023-11-19T12:48:10;9.40;;;4.93;;
80725;SDS011;70113;59.928;10.878;2023-11-19T12:53:21;10.25;;;4.78;;
80725;SDS011;70113;59.928;10.878;2023-11-19T12:55:48;10.18;;;4.65;;
80725;SDS011;70113;59.928;10.878;2023-11-19T13:01:03;9.82;;;4.93;;
80725;SDS011;70113;59.928;10.878;2023-11-19T13:03:31;9.38;;;5.35;;
80725;SDS011;70113;59.928;10.878;2023-11-19T13:06:02;8.80;;;5.22;;
80725;SDS011;70113;59.928;10.878;2023-11-19T13:08:35;9.93;;;5.18;;
80725;SDS011;70113;59.928;10.878;2023-11-19T13:11:05;10.05;;;4.78;;
80725;SDS011;70113;59.928;10.878;2023-11-19T13:13:49;14.25;;;5.32;;
80725;SDS011;70113;59.928;10.878;2023-11-19T13:16:22;11.55;;;5.57;;
80725;SDS011;70113;59.928;10.878;2023-11-19T13:18:49;12.07;;;6.00;;
80725;SDS011;70113;59.928;10.878;2023-11-19T13:21:14;12.52;;;5.55;;
80725;SDS011;70113;59.928;10.878;2023-11-19T13:23:40;10.48;;;5.70;;
80725;SDS011;70113;59.928;10.878;2023-11-19T13:26:09;10.35;;;5.38;;
80725;SDS011;70113;59.928;10.878;2023-11-19T13:28:37;12.25;;;6.00;;
80725;SDS011;70113;59.928;10.878;2023-11-19T13:31:03;10.07;;;5.10;;
80725;SDS011;70113;59.928;10.878;2023-11-19T13:33:29;10.65;;;5.65;;
80725;SDS011;70113;59.928;10.878;2023-11-19T13:35:56;10.27;;;5.45;;
80725;SDS011;70113;59.928;10.878;2023-11-19T13:38:22;12.02;;;4.72;;
80725;SDS011;70113;59.928;10.878;2023-11-19T13:40:49;11.57;;;5.40;;
80725;SDS011;70113;59.928;10.878;2023-11-19T13:43:16;9.77;;;5.38;;
80725;SDS011;70113;59.928;10.878;2023-11-19T13:45:42;9.13;;;3.92;;
80725;SDS011;70113;59.928;10.878;2023-11-19T13:48:08;9.88;;;4.15;;
80725;SDS011;70113;59.928;10.878;2023-11-19T13:50:34;9.73;;;4.80;;
80725;SDS011;70113;59.928;10.878;2023-11-19T13:53:00;11.10;;;5.13;;
80725;SDS011;70113;59.928;10.878;2023-11-19T13:55:26;8.35;;;3.95;;
80725;SDS011;70113;59.928;10.878;2023-11-19T13:57:52;10.48;;;3.90;;
80725;SDS011;70113;59.928;10.878;2023-11-19T14:00:18;8.00;;;3.13;;
80725;SDS011;70113;59.928;10.878;2023-11-19T14:02:47;6.85;;;3.10;;
80725;SDS011;70113;59.928;10.878;2023-11-19T14:05:13;7.88;;;3.30;;
80725;SDS011;70113;59.928;10.878;2023-11-19T14:07:41;8.43;;;3.80;;
80725;SDS011;70113;59.928;10.878;2023-11-19T14:10:07;6.75;;;3.38;;
80725;SDS011;70113;59.928;10.878;2023-11-19T14:12:42;7.50;;;3.72;;
80725;SDS011;70113;59.928;10.878;2023-11-19T14:15:09;6.03;;;3.10;;
80725;SDS011;70113;59.928;10.878;2023-11-19T14:17:35;6.63;;;3.25;;
80725;SDS011;70113;59.928;10.878;2023-11-19T14:20:04;6.30;;;3.05;;
80725;SDS011;70113;59.928;10.878;2023-11-19T14:22:49;6.63;;;3.17;;
80725;SDS011;70113;59.928;10.878;2023-11-19T14:25:15;7.25;;;3.45;;
80725;SDS011;70113;59.928;10.878;2023-11-19T14:27:42;8.20;;;4.00;;
80725;SDS011;70113;59.928;10.878;2023-11-19T14:30:09;7.88;;;3.40;;
80725;SDS011;70113;59.928;10.878;2023-11-19T14:32:42;7.07;;;2.90;;
80725;SDS011;70113;59.928;10.878;2023-11-19T14:35:11;8.18;;;3.42;;
80725;SDS011;70113;59.928;10.878;2023-11-19T14:37:37;5.80;;;3.00;;
80725;SDS011;70113;59.928;10.878;2023-11-19T14:40:02;6.95;;;3.10;;
80725;SDS011;70113;59.928;10.878;2023-11-19T14:42:32;7.93;;;2.83;;
80725;SDS011;70113;59.928;10.878;2023-11-19T14:44:58;7.00;;;3.13;;
80725;SDS011;70113;59.928;10.878;2023-11-19T14:47:24;7.05;;;3.05;;
80725;SDS011;70113;59.928;10.878;2023-11-19T14:49:50;6.95;;;2.97;;
80725;SDS011;70113;59.928;10.878;2023-11-19T14:52:15;7.05;;;3.30;;
80725;SDS011;70113;59.928;10.878;2023-11-19T14:54:41;6.60;;;3.35;;
80725;SDS011;70113;59.928;10.878;2023-11-19T14:57:07;6.65;;;3.22;;
80725;SDS011;70113;59.928;10.878;2023-11-19T14:59:38;7.28;;;4.32;;
80725;SDS011;70113;59.928;10.878;2023-11-19T15:02:05;6.93;;;3.47;;
80725;SDS011;70113;59.928;10.878;2023-11-19T15:04:34;7.90;;;4.07;;
80725;SDS011;70113;59.928;10.878;2023-11-19T15:07:00;7.43;;;3.45;;
80725;SDS011;70113;59.928;10.878;2023-11-19T15:09:25;6.80;;;2.97;;
80725;SDS011;70113;59.928;10.878;2023-11-19T15:11:54;7.25;;;3.50;;
80725;SDS011;70113;59.928;10.878;2023-11-19T15:14:20;7.35;;;3.78;;
80725;SDS011;70113;59.928;10.878;2023-11-19T15:16:47;7.72;;;4.10;;
80725;SDS011;70113;59.928;10.878;2023-11-19T15:19:13;8.32;;;3.72;;
80725;SDS011;70113;59.928;10.878;2023-11-19T15:21:40;7.45;;;3.20;;
80725;SDS011;70113;59.928;10.878;2023-11-19T15:24:07;6.88;;;3.38;;
80725;SDS011;70113;59.928;10.878;2023-11-19T15:26:34;9.02;;;3.10;;
80725;SDS011;70113;59.928;10.878;2023-11-19T15:29:00;7.88;;;3.15;;